createdAt,value
2018-07-19T00:00:56.036Z,16.80
2018-07-19T00:05:30.199Z,16.70
2018-07-19T00:10:06.131Z,16.70
2018-07-19T00:14:40.383Z,16.60
2018-07-19T00:19:14.576Z,16.50
2018-07-19T00:23:49.574Z,16.40
2018-07-19T00:28:24.400Z,16.30
2018-07-19T00:32:58.935Z,16.10
2018-07-19T00:37:37.895Z,16.00
2018-07-19T00:42:13.365Z,16.00
2018-07-19T00:46:48.548Z,16.00
2018-07-19T00:51:25.183Z,15.90
2018-07-19T00:55:59.431Z,15.90
2018-07-19T01:00:33.716Z,15.90
2018-07-19T01:05:08.944Z,16.00
2018-07-19T01:09:43.163Z,15.90
2018-07-19T01:14:18.671Z,15.90
2018-07-19T01:18:53.067Z,15.90
2018-07-19T01:23:28.667Z,15.90
2018-07-19T01:28:03.359Z,15.90
2018-07-19T01:32:38.909Z,15.80
2018-07-19T01:37:14.139Z,15.70
2018-07-19T01:42:28.731Z,15.60
2018-07-19T01:47:03.052Z,15.50
2018-07-19T01:51:37.572Z,15.30
2018-07-19T01:56:12.707Z,15.40
2018-07-19T02:00:47.314Z,15.30
2018-07-19T02:05:22.591Z,15.20
2018-07-19T02:09:57.699Z,15.10
2018-07-19T02:14:32.531Z,15.10
2018-07-19T02:19:07.931Z,15.10
2018-07-19T02:23:42.103Z,15.10
2018-07-19T02:32:50.472Z,14.90
2018-07-19T02:41:59.023Z,14.90
2018-07-19T02:46:33.267Z,14.90
2018-07-19T02:51:07.776Z,14.80
2018-07-19T02:55:42.342Z,14.70
2018-07-19T03:04:51.679Z,14.60
2018-07-19T03:09:25.852Z,14.50
2018-07-19T03:14:00.563Z,14.40
2018-07-19T03:18:35.251Z,14.30
2018-07-19T03:23:09.664Z,14.30
2018-07-19T03:27:44.559Z,14.30
2018-07-19T03:32:19.832Z,14.30
2018-07-19T03:36:53.958Z,14.20
2018-07-19T03:41:28.759Z,14.10
2018-07-19T03:46:03.288Z,14.00
2018-07-19T03:50:38.476Z,14.00
2018-07-19T03:55:13.199Z,13.90
2018-07-19T03:59:47.578Z,13.90
2018-07-19T04:04:22.041Z,14.00
2018-07-19T04:08:57.107Z,14.00
2018-07-19T04:13:31.263Z,14.00
2018-07-19T04:18:05.548Z,14.00
2018-07-19T04:22:40.174Z,14.00
2018-07-19T04:27:14.605Z,14.00
2018-07-19T04:31:49.098Z,14.00
2018-07-19T04:36:23.808Z,14.10
2018-07-19T04:40:58.143Z,14.20
2018-07-19T04:45:32.331Z,14.30
2018-07-19T04:50:06.568Z,14.50
2018-07-19T04:54:41.021Z,14.50
2018-07-19T04:59:15.339Z,14.60
2018-07-19T05:03:49.584Z,14.70
2018-07-19T05:12:58.332Z,15.00
2018-07-19T05:17:32.671Z,15.10
2018-07-19T05:22:09.539Z,15.30
2018-07-19T05:26:43.801Z,15.50
2018-07-19T05:31:17.963Z,15.70
2018-07-19T05:35:52.171Z,15.90
2018-07-19T05:40:27.253Z,16.20
2018-07-19T05:45:02.232Z,16.40
2018-07-19T05:49:36.691Z,16.60
2018-07-19T05:54:12.359Z,16.90
2018-07-19T05:58:47.604Z,17.10
2018-07-19T06:03:21.961Z,17.40
2018-07-19T06:07:56.815Z,17.70
2018-07-19T06:12:31.252Z,18.00
2018-07-19T06:17:06.744Z,18.30
2018-07-19T06:21:41.040Z,18.50
2018-07-19T06:26:16.148Z,18.80
2018-07-19T06:30:50.548Z,19.10
2018-07-19T06:35:27.170Z,19.40
2018-07-19T06:40:02.147Z,19.60
2018-07-19T06:44:37.020Z,19.90
2018-07-19T06:49:11.451Z,20.30
2018-07-19T06:58:20.160Z,21.00
2018-07-19T07:02:55.246Z,21.30
2018-07-19T07:07:30.201Z,21.60
2018-07-19T07:12:05.775Z,22.00
2018-07-19T07:16:39.996Z,22.30
2018-07-19T07:25:52.296Z,22.90
2018-07-19T07:30:27.281Z,23.10
2018-07-19T07:35:01.856Z,23.40
2018-07-19T07:39:38.066Z,23.80
2018-07-19T07:44:12.418Z,23.90
2018-07-19T07:48:46.759Z,24.20
2018-07-19T07:53:21.602Z,24.60
2018-07-19T07:57:57.198Z,24.90
2018-07-19T08:02:32.535Z,25.30
2018-07-19T08:07:07.874Z,25.70
2018-07-19T08:11:42.117Z,26.00
2018-07-19T08:16:16.475Z,26.40
2018-07-19T08:20:50.890Z,26.90
2018-07-19T08:25:25.530Z,27.30
2018-07-19T08:29:59.879Z,27.40
2018-07-19T08:34:34.172Z,27.70
2018-07-19T08:39:11.741Z,28.60
2018-07-19T08:43:46.179Z,30.10
2018-07-19T08:48:20.556Z,31.50
2018-07-19T08:52:54.875Z,32.90
2018-07-19T08:57:29.048Z,34.20
2018-07-19T09:02:04.016Z,34.50
2018-07-19T09:06:38.280Z,34.60
2018-07-19T09:11:12.505Z,34.80
2018-07-19T09:15:47.063Z,35.30
2018-07-19T09:20:22.219Z,35.80
2018-07-19T09:24:57.165Z,36.00
2018-07-19T09:29:31.600Z,36.30
2018-07-19T09:34:06.649Z,36.80
2018-07-19T09:38:41.441Z,37.70
2018-07-19T09:43:15.831Z,38.10
2018-07-19T09:47:50.220Z,38.10
2018-07-19T09:52:24.862Z,37.90
2018-07-19T09:56:59.522Z,37.80
2018-07-19T10:01:34.264Z,37.70
2018-07-19T10:06:09.588Z,37.50
2018-07-19T10:10:43.985Z,37.90
2018-07-19T10:15:21.866Z,38.10
2018-07-19T10:19:56.789Z,38.10
2018-07-19T10:24:31.310Z,38.00
2018-07-19T10:29:05.861Z,38.20
2018-07-19T10:33:43.137Z,37.70
2018-07-19T10:38:20.551Z,37.60
2018-07-19T10:42:54.794Z,37.90
2018-07-19T10:47:29.228Z,37.90
2018-07-19T10:52:04.578Z,38.10
2018-07-19T11:01:15.358Z,35.10
2018-07-19T11:05:51.824Z,34.90
2018-07-19T11:10:26.667Z,36.30
2018-07-19T11:15:01.228Z,37.30
2018-07-19T11:19:35.884Z,38.10
2018-07-19T11:24:10.303Z,40.00
2018-07-19T11:28:44.637Z,39.70
2018-07-19T11:33:20.098Z,37.20
2018-07-19T11:37:54.330Z,37.10
2018-07-19T11:42:29.648Z,36.30
2018-07-19T11:47:04.803Z,34.60
2018-07-19T11:51:40.520Z,33.40
2018-07-19T11:56:14.711Z,32.30
2018-07-19T12:00:49.152Z,31.30
2018-07-19T12:05:24.579Z,30.50
2018-07-19T12:09:59.515Z,31.60
2018-07-19T12:14:33.845Z,33.00
2018-07-19T12:19:10.040Z,34.70
2018-07-19T12:23:44.272Z,36.50
2018-07-19T12:28:18.544Z,38.00
2018-07-19T12:32:53.000Z,39.10
2018-07-19T12:37:27.296Z,39.90
2018-07-19T12:42:01.749Z,40.80
2018-07-19T12:46:36.772Z,41.00
2018-07-19T12:51:11.024Z,40.90
2018-07-19T12:55:45.867Z,40.60
2018-07-19T13:00:20.683Z,40.00
2018-07-19T13:04:55.464Z,39.20
2018-07-19T13:09:30.784Z,38.70
2018-07-19T13:14:06.635Z,37.50
2018-07-19T13:18:41.745Z,36.30
2018-07-19T13:23:16.008Z,36.30
2018-07-19T13:27:50.352Z,35.50
2018-07-19T13:32:24.887Z,35.20
2018-07-19T13:37:01.315Z,35.00
2018-07-19T13:41:36.018Z,34.70
2018-07-19T13:46:10.777Z,34.30
2018-07-19T13:50:46.772Z,34.20
2018-07-19T13:55:21.171Z,34.00
2018-07-19T13:59:55.421Z,33.80
2018-07-19T14:04:29.591Z,33.50
2018-07-19T14:09:06.023Z,32.80
2018-07-19T14:13:41.403Z,32.00
2018-07-19T14:18:17.051Z,31.20
2018-07-19T14:22:51.593Z,30.90
2018-07-19T14:27:27.526Z,30.80
2018-07-19T14:32:02.909Z,30.60
2018-07-19T14:36:41.531Z,30.40
2018-07-19T14:41:23.637Z,30.40
2018-07-19T14:46:00.554Z,30.20
2018-07-19T14:50:36.788Z,30.20
2018-07-19T14:55:14.261Z,29.90
2018-07-19T14:59:51.757Z,29.80
2018-07-19T15:04:31.196Z,29.70
2018-07-19T15:09:10.777Z,29.60
2018-07-19T15:13:47.988Z,29.60
2018-07-19T15:22:56.843Z,30.10
2018-07-19T15:27:32.725Z,30.20
2018-07-19T15:32:07.704Z,30.30
2018-07-19T15:36:43.169Z,30.30
2018-07-19T15:41:17.736Z,30.30
2018-07-19T15:45:52.931Z,30.10
2018-07-19T15:50:28.080Z,30.20
2018-07-19T15:55:02.396Z,30.70
2018-07-19T15:59:36.924Z,30.90
2018-07-19T16:04:11.393Z,31.20
2018-07-19T16:08:47.262Z,31.20
2018-07-19T16:13:22.838Z,31.40
2018-07-19T16:17:57.291Z,31.70
2018-07-19T16:22:32.496Z,31.60
2018-07-19T16:27:07.523Z,31.40
2018-07-19T16:31:42.576Z,31.10
2018-07-19T16:36:16.832Z,31.00
2018-07-19T16:40:51.811Z,30.70
2018-07-19T16:45:26.136Z,30.50
2018-07-19T16:50:06.224Z,30.30
2018-07-19T16:54:42.013Z,30.10
2018-07-19T16:59:17.134Z,30.00
2018-07-19T17:03:51.283Z,29.90
2018-07-19T17:08:25.772Z,29.70
2018-07-19T17:17:34.411Z,29.70
2018-07-19T17:22:08.573Z,29.70
2018-07-19T17:26:43.003Z,29.70
2018-07-19T17:31:17.319Z,29.50
2018-07-19T17:35:51.879Z,29.40
2018-07-19T17:45:01.392Z,28.80
2018-07-19T17:49:35.658Z,28.50
2018-07-19T17:54:10.785Z,28.40
2018-07-19T17:58:44.968Z,28.30
2018-07-19T18:03:20.567Z,28.20
2018-07-19T18:07:54.958Z,28.00
2018-07-19T18:12:30.483Z,27.80
2018-07-19T18:17:04.860Z,27.60
2018-07-19T18:30:49.077Z,27.50
2018-07-19T18:35:23.264Z,27.30
2018-07-19T18:39:58.768Z,27.20
2018-07-19T18:44:34.338Z,27.00
2018-07-19T18:49:08.801Z,26.70
2018-07-19T18:53:43.623Z,26.50
2018-07-19T18:58:18.568Z,26.20
2018-07-19T19:02:52.803Z,26.00
2018-07-19T19:12:02.732Z,25.50
2018-07-19T19:16:39.239Z,25.20
2018-07-19T19:21:15.385Z,24.80
2018-07-19T19:25:49.667Z,24.50
2018-07-19T19:30:25.147Z,24.30
2018-07-19T19:34:59.547Z,24.20
2018-07-19T19:39:34.311Z,23.90
2018-07-19T19:44:10.212Z,23.70
2018-07-19T19:48:46.419Z,23.50
2018-07-19T19:53:21.264Z,23.30
2018-07-19T19:57:56.332Z,23.20
2018-07-19T20:02:31.071Z,23.00
2018-07-19T20:07:07.076Z,22.90
2018-07-19T20:11:42.269Z,22.80
2018-07-19T20:16:17.065Z,22.60
2018-07-19T20:20:51.971Z,22.30
2018-07-19T20:25:27.392Z,22.10
2018-07-19T20:30:01.780Z,21.90
2018-07-19T20:34:36.095Z,21.80
2018-07-19T20:39:11.091Z,21.80
2018-07-19T20:43:46.301Z,21.70
2018-07-19T20:48:20.731Z,21.60
2018-07-19T20:52:55.507Z,21.50
2018-07-19T20:57:29.916Z,21.30
2018-07-19T21:02:04.251Z,21.10
2018-07-19T21:06:39.060Z,20.90
2018-07-19T21:11:14.608Z,20.80
2018-07-19T21:15:49.003Z,20.80
2018-07-19T21:20:24.359Z,20.60
2018-07-19T21:25:00.107Z,20.50
2018-07-19T21:29:34.405Z,20.40
2018-07-19T21:34:09.399Z,20.30
2018-07-19T21:38:43.707Z,20.30
2018-07-19T21:43:19.104Z,20.20
2018-07-19T21:47:54.176Z,20.20
2018-07-19T21:52:30.132Z,20.10
2018-07-19T21:57:05.275Z,20.00
2018-07-19T22:01:44.195Z,19.90
2018-07-19T22:06:19.090Z,19.80
2018-07-19T22:10:53.532Z,19.60
2018-07-19T22:15:28.508Z,19.40
2018-07-19T22:20:04.123Z,19.20
2018-07-19T22:24:39.132Z,19.00
2018-07-19T22:29:14.055Z,19.00
2018-07-19T22:33:48.643Z,19.00
2018-07-19T22:38:23.483Z,18.90
2018-07-19T22:42:57.822Z,18.80
2018-07-19T22:47:32.820Z,18.70
2018-07-19T22:52:07.219Z,18.70
2018-07-19T22:56:42.104Z,18.70
2018-07-19T23:01:17.300Z,18.60
2018-07-19T23:05:52.780Z,18.50
2018-07-19T23:10:27.073Z,18.40
2018-07-19T23:15:02.587Z,18.30
2018-07-19T23:19:36.837Z,18.30
2018-07-19T23:24:11.079Z,18.30
2018-07-19T23:28:47.051Z,18.10
2018-07-19T23:33:21.816Z,18.10
2018-07-19T23:37:57.980Z,17.90
2018-07-19T23:42:36.165Z,17.80
2018-07-19T23:47:14.753Z,17.70
2018-07-19T23:51:49.103Z,17.60
2018-07-19T23:56:23.834Z,17.50
